AUA263 LOWW-EDDS
Flight info
| Callsign | AUA263 |
|---|---|
| Flight time | 0h 57m |
| Altitude | 30000 |
| Route | LUGEM DCT KIRDI DCT EBEDA L173 MAH/N0367F240 L173 DODIL T127 TEKSI TEKSI1W |
| Aircraft | A320/M-SDE3FGHIRWY/LB1 |
Departure
| Time | 2026-04-24 05:17 |
|---|---|
| Airport | Vienna International Airport (LOWW) |
Arrival
| Time | 2026-04-24 06:15 |
|---|---|
| Airport | Stuttgart Airport (EDDS) |
| Time | Latitude | Longitude | Altitude | Speed | Heading |
|---|---|---|---|---|---|
| 2026-04-24 05:00 | 48.11789 | 16.56032 | 607 ft | 0 kts | 36° |
| 2026-04-24 05:09 | 48.11782 | 16.56024 | 616 ft | 2 kts | 39° |
| 2026-04-24 05:09 | 48.11769 | 16.56009 | 616 ft | 2 kts | 44° |
| 2026-04-24 05:09 | 48.11758 | 16.55991 | 621 ft | 2 kts | 53° |
| 2026-04-24 05:10 | 48.11748 | 16.55972 | 623 ft | 2 kts | 63° |
| 2026-04-24 05:10 | 48.11742 | 16.55949 | 624 ft | 2 kts | 81° |
| 2026-04-24 05:10 | 48.11741 | 16.55925 | 627 ft | 2 kts | 107° |
| 2026-04-24 05:10 | 48.11746 | 16.55906 | 627 ft | 1 kts | 119° |
| 2026-04-24 05:11 | 48.11747 | 16.55903 | 627 ft | 0 kts | 118° |
| 2026-04-24 05:12 | 48.11747 | 16.55904 | 627 ft | 2 kts | 118° |
| 2026-04-24 05:13 | 48.11662 | 16.55981 | 621 ft | 6 kts | 183° |
| 2026-04-24 05:13 | 48.11621 | 16.56018 | 620 ft | 13 kts | 128° |
| 2026-04-24 05:13 | 48.11579 | 16.56141 | 620 ft | 13 kts | 116° |
| 2026-04-24 05:14 | 48.11541 | 16.56259 | 625 ft | 12 kts | 115° |
| 2026-04-24 05:14 | 48.11495 | 16.56405 | 615 ft | 18 kts | 115° |
| 2026-04-24 05:14 | 48.11443 | 16.56562 | 622 ft | 15 kts | 115° |
| 2026-04-24 05:14 | 48.11400 | 16.56694 | 625 ft | 13 kts | 116° |
| 2026-04-24 05:15 | 48.11345 | 16.56778 | 618 ft | 10 kts | 172° |
| 2026-04-24 05:15 | 48.11301 | 16.56730 | 630 ft | 9 kts | 247° |
| 2026-04-24 05:15 | 48.11294 | 16.56599 | 619 ft | 15 kts | 266° |
| 2026-04-24 05:15 | 48.11281 | 16.56451 | 622 ft | 12 kts | 261° |
| 2026-04-24 05:16 | 48.11300 | 16.56349 | 626 ft | 0 kts | 295° |
| 2026-04-24 05:16 | 48.11373 | 16.56125 | 622 ft | 61 kts | 296° |
| 2026-04-24 05:17 | 48.11658 | 16.55253 | 608 ft | 124 kts | 296° |
| 2026-04-24 05:17 | 48.12094 | 16.53881 | 834 ft | 152 kts | 294° |
| 2026-04-24 05:17 | 48.12179 | 16.52329 | 1570 ft | 156 kts | 261° |
| 2026-04-24 05:17 | 48.11935 | 16.50698 | 2094 ft | 172 kts | 268° |
| 2026-04-24 05:18 | 48.11723 | 16.48821 | 2437 ft | 196 kts | 269° |
| 2026-04-24 05:18 | 48.11479 | 16.46655 | 2812 ft | 224 kts | 264° |
| 2026-04-24 05:18 | 48.11093 | 16.44256 | 3332 ft | 248 kts | 262° |
| 2026-04-24 05:18 | 48.10904 | 16.43151 | 3647 ft | 253 kts | 262° |
| 2026-04-24 05:19 | 48.10448 | 16.40572 | 4589 ft | 258 kts | 262° |
| 2026-04-24 05:19 | 48.09988 | 16.37988 | 5647 ft | 255 kts | 262° |
| 2026-04-24 05:19 | 48.09832 | 16.35379 | 6563 ft | 253 kts | 275° |
| 2026-04-24 05:19 | 48.09859 | 16.32744 | 7235 ft | 254 kts | 276° |
| 2026-04-24 05:20 | 48.09903 | 16.30078 | 8097 ft | 260 kts | 277° |
| 2026-04-24 05:20 | 48.09957 | 16.27337 | 8887 ft | 268 kts | 277° |
| 2026-04-24 05:20 | 48.10016 | 16.24513 | 9659 ft | 276 kts | 277° |
| 2026-04-24 05:20 | 48.10076 | 16.21595 | 10295 ft | 289 kts | 277° |
| 2026-04-24 05:21 | 48.10289 | 16.18506 | 10581 ft | 310 kts | 282° |
| 2026-04-24 05:21 | 48.10591 | 16.15242 | 11165 ft | 321 kts | 282° |
| 2026-04-24 05:21 | 48.10896 | 16.11898 | 11905 ft | 327 kts | 282° |
| 2026-04-24 05:21 | 48.11202 | 16.08499 | 12662 ft | 332 kts | 282° |
| 2026-04-24 05:22 | 48.11510 | 16.05054 | 13431 ft | 336 kts | 282° |
| 2026-04-24 05:22 | 48.11821 | 16.01559 | 14149 ft | 341 kts | 282° |
| 2026-04-24 05:22 | 48.12133 | 15.98062 | 14796 ft | 346 kts | 282° |
| 2026-04-24 05:22 | 48.12454 | 15.94470 | 15388 ft | 351 kts | 282° |
| 2026-04-24 05:23 | 48.12779 | 15.90823 | 16014 ft | 356 kts | 282° |
| 2026-04-24 05:23 | 48.13107 | 15.87129 | 16662 ft | 360 kts | 282° |
| 2026-04-24 05:23 | 48.13435 | 15.83387 | 17308 ft | 365 kts | 282° |
| 2026-04-24 05:23 | 48.13766 | 15.79597 | 17954 ft | 369 kts | 282° |
| 2026-04-24 05:24 | 48.14100 | 15.75762 | 18581 ft | 374 kts | 282° |
| 2026-04-24 05:24 | 48.14437 | 15.71884 | 19139 ft | 377 kts | 282° |
| 2026-04-24 05:24 | 48.14776 | 15.67967 | 19707 ft | 381 kts | 282° |
| 2026-04-24 05:24 | 48.15118 | 15.64010 | 20271 ft | 385 kts | 282° |
| 2026-04-24 05:25 | 48.15461 | 15.60013 | 20833 ft | 389 kts | 282° |
| 2026-04-24 05:25 | 48.15808 | 15.55978 | 21096 ft | 391 kts | 282° |
| 2026-04-24 05:25 | 48.16153 | 15.51933 | 21149 ft | 392 kts | 282° |
| 2026-04-24 05:25 | 48.16495 | 15.47884 | 21168 ft | 392 kts | 282° |
| 2026-04-24 05:26 | 48.16835 | 15.43835 | 21168 ft | 392 kts | 282° |
| 2026-04-24 05:26 | 48.17169 | 15.39791 | 21168 ft | 393 kts | 280° |
| 2026-04-24 05:26 | 48.17312 | 15.35682 | 21173 ft | 395 kts | 277° |
| 2026-04-24 05:26 | 48.17415 | 15.31580 | 21219 ft | 397 kts | 276° |
| 2026-04-24 05:27 | 48.17516 | 15.27435 | 21779 ft | 400 kts | 276° |
| 2026-04-24 05:27 | 48.17613 | 15.23258 | 22347 ft | 403 kts | 276° |
| 2026-04-24 05:27 | 48.17711 | 15.19035 | 22911 ft | 407 kts | 276° |
| 2026-04-24 05:27 | 48.17807 | 15.14789 | 23447 ft | 410 kts | 276° |
| 2026-04-24 05:28 | 48.17902 | 15.10505 | 23933 ft | 414 kts | 276° |
| 2026-04-24 05:28 | 48.17990 | 15.06470 | 24367 ft | 416 kts | 276° |
| 2026-04-24 05:28 | 48.18087 | 15.02196 | 24824 ft | 419 kts | 276° |
| 2026-04-24 05:28 | 48.18183 | 14.97821 | 25267 ft | 421 kts | 276° |
| 2026-04-24 05:29 | 48.18279 | 14.93419 | 25692 ft | 424 kts | 276° |
| 2026-04-24 05:29 | 48.18372 | 14.88991 | 26114 ft | 426 kts | 276° |
| 2026-04-24 05:29 | 48.18464 | 14.84537 | 26541 ft | 429 kts | 276° |
| 2026-04-24 05:29 | 48.18553 | 14.80059 | 26959 ft | 431 kts | 276° |
| 2026-04-24 05:30 | 48.18642 | 14.75556 | 27360 ft | 434 kts | 276° |
| 2026-04-24 05:30 | 48.18728 | 14.71027 | 27751 ft | 436 kts | 276° |
| 2026-04-24 05:30 | 48.18811 | 14.66533 | 28118 ft | 438 kts | 276° |
| 2026-04-24 05:30 | 48.18896 | 14.61902 | 28514 ft | 441 kts | 276° |
| 2026-04-24 05:31 | 48.18980 | 14.57350 | 28893 ft | 443 kts | 276° |
| 2026-04-24 05:31 | 48.19065 | 14.52724 | 29269 ft | 445 kts | 276° |
| 2026-04-24 05:31 | 48.19148 | 14.48072 | 29632 ft | 448 kts | 276° |
| 2026-04-24 05:31 | 48.19226 | 14.43396 | 29994 ft | 450 kts | 276° |
| 2026-04-24 05:32 | 48.19300 | 14.38698 | 30191 ft | 450 kts | 276° |
| 2026-04-24 05:32 | 48.19368 | 14.34091 | 30218 ft | 434 kts | 276° |
| 2026-04-24 05:32 | 48.19410 | 14.31129 | 30220 ft | 425 kts | 276° |
| 2026-04-24 05:33 | 48.19562 | 14.20909 | 30217 ft | 417 kts | 276° |
| 2026-04-24 05:33 | 48.19670 | 14.13683 | 30220 ft | 418 kts | 276° |
| 2026-04-24 05:34 | 48.19854 | 14.00625 | 30190 ft | 418 kts | 276° |
| 2026-04-24 05:34 | 48.19961 | 13.91915 | 30192 ft | 418 kts | 276° |
| 2026-04-24 05:35 | 48.20064 | 13.83206 | 30188 ft | 417 kts | 276° |
| 2026-04-24 05:35 | 48.20160 | 13.74511 | 30180 ft | 418 kts | 276° |
| 2026-04-24 05:36 | 48.20247 | 13.65808 | 30188 ft | 417 kts | 276° |
| 2026-04-24 05:36 | 48.20326 | 13.57105 | 30194 ft | 417 kts | 276° |
| 2026-04-24 05:37 | 48.20398 | 13.48408 | 30195 ft | 417 kts | 276° |
| 2026-04-24 05:37 | 48.20463 | 13.39705 | 30198 ft | 417 kts | 276° |
| 2026-04-24 05:38 | 48.20534 | 13.31018 | 30183 ft | 417 kts | 276° |
| 2026-04-24 05:38 | 48.20598 | 13.22334 | 30191 ft | 417 kts | 276° |
| 2026-04-24 05:39 | 48.20648 | 13.13644 | 30194 ft | 417 kts | 276° |
| 2026-04-24 05:39 | 48.20694 | 13.04967 | 30196 ft | 417 kts | 276° |
| 2026-04-24 05:40 | 48.20728 | 12.96275 | 30200 ft | 417 kts | 276° |
| 2026-04-24 05:40 | 48.20755 | 12.87586 | 30179 ft | 417 kts | 275° |
| 2026-04-24 05:41 | 48.20562 | 12.78948 | 30189 ft | 420 kts | 269° |
| 2026-04-24 05:41 | 48.19988 | 12.70235 | 30193 ft | 420 kts | 269° |
| 2026-04-24 05:42 | 48.19411 | 12.61530 | 30194 ft | 420 kts | 269° |
| 2026-04-24 05:42 | 48.18826 | 12.52829 | 30197 ft | 420 kts | 269° |
| 2026-04-24 05:43 | 48.18232 | 12.44130 | 30199 ft | 420 kts | 269° |
| 2026-04-24 05:43 | 48.17627 | 12.35422 | 30200 ft | 420 kts | 269° |
| 2026-04-24 05:44 | 48.17016 | 12.26723 | 30201 ft | 420 kts | 269° |
| 2026-04-24 05:44 | 48.16404 | 12.18035 | 30202 ft | 420 kts | 269° |
| 2026-04-24 05:45 | 48.16245 | 12.09373 | 30201 ft | 412 kts | 281° |
| 2026-04-24 05:45 | 48.16812 | 12.00841 | 30186 ft | 412 kts | 280° |
| 2026-04-24 05:46 | 48.17360 | 11.92306 | 30194 ft | 412 kts | 280° |
| 2026-04-24 05:46 | 48.17906 | 11.83775 | 30198 ft | 411 kts | 280° |
| 2026-04-24 05:47 | 48.19052 | 11.75529 | 30199 ft | 406 kts | 289° |
| 2026-04-24 05:47 | 48.20428 | 11.67318 | 30197 ft | 406 kts | 289° |
| 2026-04-24 05:48 | 48.21791 | 11.59115 | 30180 ft | 406 kts | 288° |
| 2026-04-24 05:48 | 48.23144 | 11.50887 | 30197 ft | 406 kts | 288° |
| 2026-04-24 05:49 | 48.24483 | 11.42648 | 30205 ft | 407 kts | 288° |
| 2026-04-24 05:49 | 48.25948 | 11.34489 | 30205 ft | 403 kts | 296° |
| 2026-04-24 05:50 | 48.28806 | 11.27442 | 30203 ft | 392 kts | 316° |
| 2026-04-24 05:50 | 48.32584 | 11.21578 | 30192 ft | 391 kts | 318° |
| 2026-04-24 05:51 | 48.36374 | 11.15701 | 30204 ft | 392 kts | 317° |
| 2026-04-24 05:51 | 48.40175 | 11.09784 | 30216 ft | 393 kts | 317° |
| 2026-04-24 05:52 | 48.43948 | 11.03907 | 30223 ft | 394 kts | 317° |
| 2026-04-24 05:52 | 48.47752 | 10.97957 | 30226 ft | 394 kts | 317° |
| 2026-04-24 05:53 | 48.49649 | 10.94989 | 30014 ft | 390 kts | 317° |
| 2026-04-24 05:53 | 48.51512 | 10.92047 | 29732 ft | 386 kts | 317° |
| 2026-04-24 05:53 | 48.53352 | 10.89112 | 29431 ft | 384 kts | 317° |
| 2026-04-24 05:53 | 48.55175 | 10.86187 | 29139 ft | 381 kts | 316° |
| 2026-04-24 05:54 | 48.56971 | 10.83296 | 28780 ft | 376 kts | 316° |
| 2026-04-24 05:54 | 48.58751 | 10.80431 | 28353 ft | 372 kts | 316° |
| 2026-04-24 05:54 | 48.60520 | 10.77603 | 27934 ft | 368 kts | 317° |
| 2026-04-24 05:54 | 48.62283 | 10.74807 | 27515 ft | 365 kts | 317° |
| 2026-04-24 05:55 | 48.64027 | 10.72047 | 27079 ft | 362 kts | 317° |
| 2026-04-24 05:55 | 48.65759 | 10.69305 | 26657 ft | 359 kts | 317° |
| 2026-04-24 05:55 | 48.67472 | 10.66588 | 26204 ft | 357 kts | 317° |
| 2026-04-24 05:55 | 48.69183 | 10.63868 | 25758 ft | 355 kts | 317° |
| 2026-04-24 05:56 | 48.70801 | 10.61052 | 25301 ft | 357 kts | 308° |
| 2026-04-24 05:56 | 48.71977 | 10.57768 | 24829 ft | 362 kts | 294° |
| 2026-04-24 05:56 | 48.72627 | 10.54077 | 24344 ft | 367 kts | 281° |
| 2026-04-24 05:56 | 48.72679 | 10.50203 | 23843 ft | 372 kts | 267° |
| 2026-04-24 05:57 | 48.72360 | 10.46270 | 23300 ft | 371 kts | 265° |
| 2026-04-24 05:57 | 48.72044 | 10.42443 | 22823 ft | 369 kts | 265° |
| 2026-04-24 05:57 | 48.71726 | 10.38601 | 22340 ft | 368 kts | 265° |
| 2026-04-24 05:57 | 48.71408 | 10.34770 | 21857 ft | 366 kts | 265° |
| 2026-04-24 05:58 | 48.71090 | 10.30951 | 21388 ft | 365 kts | 265° |
| 2026-04-24 05:58 | 48.70771 | 10.27146 | 20925 ft | 364 kts | 265° |
| 2026-04-24 05:58 | 48.70453 | 10.23351 | 20458 ft | 363 kts | 265° |
| 2026-04-24 05:58 | 48.70134 | 10.19564 | 19998 ft | 362 kts | 265° |
| 2026-04-24 05:59 | 48.69815 | 10.15785 | 19539 ft | 362 kts | 265° |
| 2026-04-24 05:59 | 48.69493 | 10.12012 | 19061 ft | 361 kts | 265° |
| 2026-04-24 05:59 | 48.69171 | 10.08242 | 18610 ft | 361 kts | 265° |
| 2026-04-24 05:59 | 48.68882 | 10.04474 | 18127 ft | 359 kts | 267° |
| 2026-04-24 06:00 | 48.68682 | 10.00720 | 17702 ft | 356 kts | 268° |
| 2026-04-24 06:00 | 48.68531 | 9.96987 | 17282 ft | 353 kts | 269° |
| 2026-04-24 06:00 | 48.68394 | 9.93285 | 16864 ft | 351 kts | 269° |
| 2026-04-24 06:00 | 48.68254 | 9.89609 | 16453 ft | 349 kts | 269° |
| 2026-04-24 06:01 | 48.68105 | 9.85956 | 16045 ft | 347 kts | 269° |
| 2026-04-24 06:01 | 48.67946 | 9.82327 | 15639 ft | 345 kts | 268° |
| 2026-04-24 06:01 | 48.67779 | 9.78713 | 15238 ft | 343 kts | 268° |
| 2026-04-24 06:01 | 48.67607 | 9.75122 | 14885 ft | 340 kts | 268° |
| 2026-04-24 06:02 | 48.67436 | 9.71563 | 14509 ft | 338 kts | 268° |
| 2026-04-24 06:02 | 48.67263 | 9.68019 | 14098 ft | 337 kts | 269° |
| 2026-04-24 06:02 | 48.67299 | 9.64507 | 13654 ft | 333 kts | 277° |
| 2026-04-24 06:02 | 48.67506 | 9.61041 | 13278 ft | 330 kts | 278° |
| 2026-04-24 06:03 | 48.67724 | 9.57595 | 12910 ft | 326 kts | 278° |
| 2026-04-24 06:03 | 48.67939 | 9.54190 | 12483 ft | 324 kts | 277° |
| 2026-04-24 06:03 | 48.68144 | 9.50859 | 12058 ft | 323 kts | 277° |
| 2026-04-24 06:03 | 48.68350 | 9.47495 | 11676 ft | 320 kts | 277° |
| 2026-04-24 06:04 | 48.68552 | 9.44152 | 11297 ft | 317 kts | 277° |
| 2026-04-24 06:04 | 48.68750 | 9.40843 | 10871 ft | 314 kts | 277° |
| 2026-04-24 06:04 | 48.68939 | 9.37605 | 10439 ft | 302 kts | 277° |
| 2026-04-24 06:04 | 48.69117 | 9.34518 | 10058 ft | 290 kts | 277° |
| 2026-04-24 06:05 | 48.69288 | 9.31541 | 9584 ft | 280 kts | 277° |
| 2026-04-24 06:05 | 48.69460 | 9.28598 | 8923 ft | 278 kts | 277° |
| 2026-04-24 06:05 | 48.69627 | 9.25692 | 8515 ft | 277 kts | 277° |
| 2026-04-24 06:05 | 48.69732 | 9.22783 | 8115 ft | 277 kts | 274° |
| 2026-04-24 06:06 | 48.69778 | 9.19865 | 7705 ft | 277 kts | 273° |
| 2026-04-24 06:06 | 48.69802 | 9.16954 | 7300 ft | 276 kts | 273° |
| 2026-04-24 06:06 | 48.69821 | 9.14043 | 6873 ft | 277 kts | 272° |
| 2026-04-24 06:06 | 48.69842 | 9.11144 | 6444 ft | 277 kts | 272° |
| 2026-04-24 06:07 | 48.69866 | 9.08232 | 6008 ft | 276 kts | 272° |
| 2026-04-24 06:07 | 48.69892 | 9.05332 | 5565 ft | 275 kts | 272° |
| 2026-04-24 06:07 | 48.69920 | 9.02449 | 5190 ft | 271 kts | 272° |
| 2026-04-24 06:07 | 48.69945 | 8.99678 | 5127 ft | 256 kts | 272° |
| 2026-04-24 06:08 | 48.69969 | 8.97057 | 5039 ft | 243 kts | 272° |
| 2026-04-24 06:08 | 48.69993 | 8.94563 | 4941 ft | 232 kts | 272° |
| 2026-04-24 06:08 | 48.69819 | 8.92207 | 4869 ft | 221 kts | 251° |
| 2026-04-24 06:08 | 48.69010 | 8.90319 | 4810 ft | 212 kts | 223° |
| 2026-04-24 06:09 | 48.67779 | 8.89241 | 4754 ft | 207 kts | 195° |
| 2026-04-24 06:09 | 48.66359 | 8.89119 | 4707 ft | 206 kts | 167° |
| 2026-04-24 06:09 | 48.65081 | 8.90017 | 4662 ft | 204 kts | 137° |
| 2026-04-24 06:09 | 48.64256 | 8.91715 | 4607 ft | 201 kts | 108° |
| 2026-04-24 06:10 | 48.63990 | 8.93768 | 4560 ft | 200 kts | 95° |
| 2026-04-24 06:10 | 48.63980 | 8.95849 | 4506 ft | 197 kts | 78° |
| 2026-04-24 06:10 | 48.64317 | 8.97790 | 4369 ft | 187 kts | 72° |
| 2026-04-24 06:11 | 48.65034 | 9.01504 | 3873 ft | 181 kts | 72° |
| 2026-04-24 06:11 | 48.65377 | 9.03294 | 3623 ft | 171 kts | 73° |
| 2026-04-24 06:11 | 48.65695 | 9.04949 | 3421 ft | 158 kts | 73° |
| 2026-04-24 06:11 | 48.65990 | 9.06491 | 3212 ft | 149 kts | 72° |
| 2026-04-24 06:12 | 48.66274 | 9.07971 | 3012 ft | 145 kts | 73° |
| 2026-04-24 06:12 | 48.66551 | 9.09420 | 2832 ft | 142 kts | 73° |
| 2026-04-24 06:12 | 48.66825 | 9.10848 | 2621 ft | 140 kts | 73° |
| 2026-04-24 06:12 | 48.67094 | 9.12259 | 2422 ft | 139 kts | 73° |
| 2026-04-24 06:13 | 48.67358 | 9.13659 | 2231 ft | 138 kts | 73° |
| 2026-04-24 06:13 | 48.67621 | 9.15050 | 2043 ft | 137 kts | 73° |
| 2026-04-24 06:13 | 48.67887 | 9.16426 | 1842 ft | 136 kts | 73° |
| 2026-04-24 06:13 | 48.68149 | 9.17794 | 1670 ft | 135 kts | 73° |
| 2026-04-24 06:14 | 48.68408 | 9.19156 | 1480 ft | 134 kts | 74° |
| 2026-04-24 06:14 | 48.68664 | 9.20507 | 1334 ft | 132 kts | 74° |
| 2026-04-24 06:14 | 48.68909 | 9.21779 | 1287 ft | 114 kts | 74° |
| 2026-04-24 06:14 | 48.69081 | 9.22685 | 1287 ft | 63 kts | 74° |
| 2026-04-24 06:15 | 48.69172 | 9.23156 | 1285 ft | 25 kts | 71° |
| 2026-04-24 06:15 | 48.69223 | 9.23213 | 1285 ft | 8 kts | 349° |
| 2026-04-24 06:15 | 48.69282 | 9.23183 | 1289 ft | 9 kts | 342° |
| 2026-04-24 06:15 | 48.69338 | 9.23157 | 1288 ft | 8 kts | 342° |
| 2026-04-24 06:16 | 48.69384 | 9.23129 | 1289 ft | 8 kts | 323° |
| 2026-04-24 06:16 | 48.69402 | 9.23022 | 1285 ft | 14 kts | 262° |
| 2026-04-24 06:16 | 48.69374 | 9.22865 | 1286 ft | 16 kts | 254° |
| 2026-04-24 06:16 | 48.69344 | 9.22706 | 1287 ft | 15 kts | 254° |
| 2026-04-24 06:17 | 48.69316 | 9.22559 | 1288 ft | 14 kts | 253° |
| 2026-04-24 06:17 | 48.69288 | 9.22418 | 1288 ft | 13 kts | 253° |
| 2026-04-24 06:17 | 48.69264 | 9.22290 | 1289 ft | 12 kts | 253° |
| 2026-04-24 06:17 | 48.69242 | 9.22176 | 1285 ft | 11 kts | 254° |
| 2026-04-24 06:18 | 48.69219 | 9.22055 | 1288 ft | 14 kts | 254° |
| 2026-04-24 06:18 | 48.69191 | 9.21910 | 1289 ft | 18 kts | 253° |
| 2026-04-24 06:18 | 48.69155 | 9.21704 | 1285 ft | 22 kts | 255° |
| 2026-04-24 06:18 | 48.69111 | 9.21471 | 1285 ft | 24 kts | 253° |
| 2026-04-24 06:19 | 48.69075 | 9.21293 | 1287 ft | 13 kts | 254° |
| 2026-04-24 06:19 | 48.69052 | 9.21171 | 1286 ft | 11 kts | 253° |
| 2026-04-24 06:19 | 48.69031 | 9.21063 | 1288 ft | 10 kts | 253° |
| 2026-04-24 06:19 | 48.69007 | 9.20943 | 1286 ft | 15 kts | 254° |
| 2026-04-24 06:20 | 48.68987 | 9.20828 | 1288 ft | 18 kts | 255° |
| 2026-04-24 06:20 | 48.68951 | 9.20637 | 1286 ft | 20 kts | 253° |
| 2026-04-24 06:20 | 48.68909 | 9.20425 | 1286 ft | 22 kts | 253° |
| 2026-04-24 06:20 | 48.68865 | 9.20191 | 1285 ft | 24 kts | 255° |
| 2026-04-24 06:21 | 48.68825 | 9.19979 | 1287 ft | 14 kts | 253° |
| 2026-04-24 06:21 | 48.68861 | 9.19879 | 1287 ft | 12 kts | 344° |
| 2026-04-24 06:21 | 48.68881 | 9.19790 | 1285 ft | 9 kts | 255° |
| 2026-04-24 06:21 | 48.68863 | 9.19693 | 1285 ft | 10 kts | 254° |
| 2026-04-24 06:22 | 48.68852 | 9.19625 | 1285 ft | 2 kts | 262° |
| 2026-04-24 06:22 | 48.68862 | 9.19610 | 1289 ft | 5 kts | 320° |
| 2026-04-24 06:22 | 48.68906 | 9.19589 | 1289 ft | 6 kts | 345° |
| 2026-04-24 06:22 | 48.68919 | 9.19584 | 1285 ft | 3 kts | 345° |
| 2026-04-24 06:23 | 48.68924 | 9.19582 | 1285 ft | 0 kts | 344° |